This is the latest recevied weather packets stored in our database for station/object SIILIN. If no packets are shown the sender has not sent any weather packets the latest 10 day(s).
| Time | Temp. | Humidity | Pressure | Rain* | Wind** | Luminosity | Snow |
|---|---|---|---|---|---|---|---|
| 1777829237 | 11.11° C | 33% | 1007.1 hPa | - | - | - | - |
| 1777828031 | 11.67° C | 31% | 1007.1 hPa | - | - | - | - |
| 1777826831 | 10° C | 48% | 1007.2 hPa | - | - | - | - |
| 1777825630 | 12.22° C | 31% | 1007.1 hPa | - | - | - | - |
| 1777824431 | 12.22° C | 35% | 1007.1 hPa | - | - | - | - |
| 1777823230 | 12.22° C | 35% | 1007.2 hPa | - | - | - | - |
| 1777822030 | 11.67° C | 38% | 1007.3 hPa | - | - | - | - |
| 1777820830 | 12.22° C | 33% | 1007.2 hPa | - | - | - | - |
| 1777819630 | 12.78° C | 36% | 1007.4 hPa | - | - | - | - |
| 1777818430 | 11.67° C | 43% | 1007.5 hPa | - | - | - | - |
| 1777817230 | 12.78° C | 46% | 1007.6 hPa | - | - | - | - |
| 1777816030 | 10.56° C | 58% | 1007.8 hPa | - | - | - | - |
| 1777814830 | 11.11° C | 50% | 1007.9 hPa | - | - | - | - |
| 1777813630 | 11.11° C | 51% | 1008 hPa | - | - | - | - |
| 1777812430 | 10.56° C | 55% | 1008.3 hPa | - | - | - | - |
| 1777811230 | 10.56° C | 53% | 1008.3 hPa | - | - | - | - |
| 1777810030 | 10° C | 55% | 1008.5 hPa | - | - | - | - |
| 1777808830 | 9.44° C | 58% | 1008.5 hPa | - | - | - | - |
| 1777807629 | 10° C | 60% | 1008.4 hPa | - | - | - | - |
| 1777806430 | 9.44° C | 67% | 1008.4 hPa | - | - | - | - |
| 1777805235 | 7.22° C | 79% | 1008.4 hPa | - | - | - | - |
| 1777804030 | 7.22° C | 78% | 1008.4 hPa | - | - | - | - |
| 1777802830 | 7.22° C | 82% | 1008.5 hPa | - | - | - | - |
| 1777801629 | 7.78° C | 78% | 1008.4 hPa | - | - | - | - |
| 1777800429 | 7.78° C | 77% | 1008.4 hPa | - | - | - | - |
* Rain since midnight (hover to see other rain measurements)
** Current wind speed in m/s (hover to see current wind gust speed)